Time;durP1;ratioP1;P1;durP2;ratioP2;P2;SDS_P1;SDS_P2;PMS_P1;PMS_P2;Temp;Humidity;BMP_temperature;BMP_pressure;BME280_temperature;BME280_humidity;BME280_pressure;Samples;Min_cycle;Max_cycle;Signal;HPM_P1;HPM_P2
2022/09/17 00:00:11;;;;;;;11.40;1.65;;;11.60;99.90;;;;;;4165420;28;20041;-84
2022/09/17 00:02:25;;;;;;;11.80;2.20;;;11.60;99.90;;;;;;4164205;28;20120;-83
2022/09/17 00:04:26;;;;;;;14.25;2.50;;;11.60;99.90;;;;;;4164954;28;20116;-83
2022/09/17 00:06:27;;;;;;;15.68;1.67;;;11.60;99.90;;;;;;4165204;28;20128;-83
2022/09/17 00:08:49;;;;;;;16.67;2.28;;;11.70;99.90;;;;;;4165385;28;20033;-83
2022/09/17 00:11:27;;;;;;;12.75;1.95;;;11.70;99.90;;;;;;4147433;28;20423;-83
2022/09/17 00:13:38;;;;;;;10.75;1.83;;;11.70;99.80;;;;;;4099171;28;20047;-84
2022/09/17 00:15:59;;;;;;;6.85;1.70;;;11.60;99.70;;;;;;4120889;28;20066;-82
2022/09/17 00:18:00;;;;;;;7.25;1.15;;;11.70;99.50;;;;;;4132684;28;20105;-83
2022/09/17 00:20:11;;;;;;;15.77;2.13;;;11.70;99.60;;;;;;4132707;28;20496;-83
2022/09/17 00:22:12;;;;;;;3.70;1.58;;;11.70;99.50;;;;;;4132883;28;20077;-83
2022/09/17 00:24:15;;;;;;;11.25;1.30;;;11.70;99.50;;;;;;4132712;28;20045;-83
2022/09/17 00:26:16;;;;;;;6.95;1.20;;;11.70;99.40;;;;;;4132028;28;20046;-83
2022/09/17 00:28:17;;;;;;;9.77;1.23;;;11.70;99.50;;;;;;4132595;28;20053;-83
2022/09/17 00:30:18;;;;;;;15.60;2.42;;;11.70;99.70;;;;;;4136552;28;20451;-83
2022/09/17 00:32:18;;;;;;;9.40;1.63;;;11.60;99.90;;;;;;4135605;28;20042;-83
2022/09/17 00:34:19;;;;;;;8.27;1.50;;;11.50;99.90;;;;;;4165806;28;20045;-83
2022/09/17 00:36:21;;;;;;;9.77;1.02;;;11.50;99.90;;;;;;4161773;28;20038;-83
2022/09/17 00:38:22;;;;;;;10.73;1.77;;;11.50;99.90;;;;;;4149676;28;20053;-83
2022/09/17 00:40:23;;;;;;;7.53;1.10;;;11.40;99.90;;;;;;4149490;28;20041;-82
2022/09/17 00:42:24;;;;;;;6.28;1.67;;;11.30;99.90;;;;;;4148969;28;20050;-82
2022/09/17 00:44:46;;;;;;;11.30;1.63;;;11.30;99.90;;;;;;4149356;28;20046;-82
2022/09/17 00:46:48;;;;;;;8.15;1.25;;;11.20;99.90;;;;;;4148304;28;20042;-82
2022/09/17 00:48:51;;;;;;;23.13;2.30;;;11.20;99.90;;;;;;4131637;28;20518;-83
2022/09/17 00:50:53;;;;;;;13.77;1.27;;;11.10;99.90;;;;;;4152520;28;20576;-83
2022/09/17 00:53:31;;;;;;;12.43;2.30;;;11.10;99.90;;;;;;4132094;28;20057;-83
2022/09/17 00:55:42;;;;;;;9.65;1.70;;;11.10;99.90;;;;;;4115402;28;20108;-83
2022/09/17 00:57:44;;;;;;;16.88;1.75;;;11.00;99.90;;;;;;4149535;28;20904;-83
2022/09/17 00:59:45;;;;;;;13.38;1.63;;;11.00;99.90;;;;;;4148964;28;20046;-83
2022/09/17 01:01:46;;;;;;;23.00;1.52;;;11.00;99.90;;;;;;4149549;28;20483;-83
2022/09/17 01:03:48;;;;;;;21.02;2.50;;;11.00;99.90;;;;;;4148036;28;20053;-83
2022/09/17 01:06:03;;;;;;;16.25;2.40;;;11.00;99.90;;;;;;4149535;28;20472;-83
2022/09/17 01:08:15;;;;;;;15.85;2.70;;;11.10;99.90;;;;;;4147907;28;20873;-83
2022/09/17 01:10:29;;;;;;;11.55;1.90;;;11.10;99.90;;;;;;4131635;28;20069;-84
2022/09/17 01:12:55;;;;;;;15.48;2.20;;;11.10;99.90;;;;;;4131938;28;20051;-83
2022/09/17 01:15:17;;;;;;;19.25;1.88;;;11.10;99.90;;;;;;4123577;28;20061;-83
2022/09/17 01:17:18;;;;;;;12.63;1.40;;;11.10;99.90;;;;;;4147486;28;20050;-83
2022/09/17 01:19:46;;;;;;;13.25;1.40;;;11.10;99.90;;;;;;4149251;28;20504;-83
2022/09/17 01:22:03;;;;;;;12.52;1.92;;;11.20;99.90;;;;;;4149165;28;20054;-83
2022/09/17 01:24:27;;;;;;;15.55;2.00;;;11.10;99.90;;;;;;4148910;28;20571;-83
2022/09/17 01:26:37;;;;;;;13.00;1.38;;;11.10;99.90;;;;;;4163938;28;20033;-83
2022/09/17 01:28:44;;;;;;;10.05;1.27;;;11.10;99.90;;;;;;4165201;28;20044;-83
2022/09/17 01:31:03;;;;;;;15.32;2.30;;;11.10;99.90;;;;;;4147362;28;20077;-83
2022/09/17 01:33:24;;;;;;;17.38;2.33;;;11.10;99.90;;;;;;4163421;28;20042;-83
2022/09/17 01:35:40;;;;;;;16.25;2.30;;;11.10;99.90;;;;;;4164168;28;20045;-83
2022/09/17 01:37:46;;;;;;;17.92;2.70;;;11.10;99.90;;;;;;4163883;28;20045;-83
2022/09/17 01:40:13;;;;;;;18.88;1.50;;;11.10;99.90;;;;;;4164376;28;20049;-83
2022/09/17 01:42:30;;;;;;;15.02;1.65;;;11.20;99.90;;;;;;4164199;28;20057;-83
2022/09/17 01:44:39;;;;;;;16.38;1.75;;;11.20;99.90;;;;;;4164156;28;20034;-84
2022/09/17 01:46:48;;;;;;;;;;;11.30;99.90;;;;;;4152498;28;20076;-83
2022/09/17 01:48:55;;;;;;;12.95;1.15;;;11.30;99.90;;;;;;4131190;28;19922;-83
2022/09/17 01:51:05;;;;;;;17.38;2.13;;;11.30;99.90;;;;;;4148411;28;20049;-83
2022/09/17 01:53:09;;;;;;;10.15;1.60;;;11.30;99.90;;;;;;4146638;28;20087;-83
2022/09/17 01:55:14;;;;;;;8.88;1.55;;;11.20;99.90;;;;;;4148137;28;20081;-83
2022/09/17 01:57:51;;;;;;;12.15;2.25;;;11.20;99.90;;;;;;4131023;28;20078;-83
2022/09/17 02:00:00;;;;;;;10.63;1.83;;;11.10;99.90;;;;;;4145101;28;20500;-83
2022/09/17 02:02:30;;;;;;;13.20;1.42;;;11.10;99.90;;;;;;4148910;28;20049;-84
2022/09/17 02:04:51;;;;;;;10.70;1.30;;;11.00;99.90;;;;;;4128431;28;20096;-83
2022/09/17 02:06:58;;;;;;;10.80;1.27;;;10.90;99.90;;;;;;4164908;28;20046;-83
2022/09/17 02:09:06;;;;;;;12.80;2.17;;;10.90;99.90;;;;;;4164818;28;20051;-83
2022/09/17 02:11:14;;;;;;;11.05;2.35;;;10.80;99.90;;;;;;4165181;28;20096;-83
2022/09/17 02:13:25;;;;;;;7.70;1.10;;;10.80;99.90;;;;;;4147151;28;20602;-83
2022/09/17 02:15:33;;;;;;;10.10;1.45;;;10.80;99.90;;;;;;4147267;28;20054;-84
2022/09/17 02:17:40;;;;;;;8.77;1.10;;;10.70;99.80;;;;;;4117718;28;20125;-83
2022/09/17 02:19:42;;;;;;;13.75;1.63;;;10.70;99.60;;;;;;4115304;28;20042;-83
2022/09/17 02:21:55;;;;;;;18.70;1.80;;;10.70;99.50;;;;;;4115161;28;20078;-83
2022/09/17 02:24:13;;;;;;;12.07;1.60;;;10.70;99.30;;;;;;4132769;28;20046;-83
2022/09/17 02:26:19;;;;;;;13.15;1.20;;;10.70;99.30;;;;;;4115447;28;20047;-83
2022/09/17 02:28:29;;;;;;;8.57;1.75;;;10.80;99.10;;;;;;4114917;28;20170;-83
2022/09/17 02:30:31;;;;;;;6.10;1.00;;;10.80;99.00;;;;;;4132224;28;20058;-83
2022/09/17 02:32:32;;;;;;;15.23;1.30;;;10.90;98.90;;;;;;4115409;28;20050;-83
2022/09/17 02:34:33;;;;;;;14.40;1.48;;;10.90;98.90;;;;;;4115747;28;20509;-84
2022/09/17 02:36:34;;;;;;;13.82;1.55;;;11.00;98.90;;;;;;4114071;28;20047;-83
2022/09/17 02:38:37;;;;;;;8.55;1.42;;;10.80;98.90;;;;;;4114738;28;20575;-83
2022/09/17 02:40:47;;;;;;;13.18;1.42;;;11.00;99.00;;;;;;4136865;28;20096;-83
2022/09/17 02:43:15;;;;;;;11.85;2.28;;;10.90;99.00;;;;;;4130537;28;20066;-83
2022/09/17 02:45:45;;;;;;;11.55;2.00;;;10.90;99.00;;;;;;4130023;28;20065;-83
2022/09/17 02:47:58;;;;;;;9.80;1.95;;;10.90;99.10;;;;;;4130816;28;20042;-83
2022/09/17 02:50:05;;;;;;;15.20;1.52;;;10.90;99.20;;;;;;4149746;28;20038;-83
2022/09/17 02:52:16;;;;;;;12.43;1.77;;;10.90;99.10;;;;;;4134865;28;20120;-83
2022/09/17 02:54:40;;;;;;;14.00;1.45;;;11.00;99.20;;;;;;4133872;28;20078;-83
2022/09/17 02:56:54;;;;;;;10.15;1.00;;;11.00;99.10;;;;;;4134440;28;20049;-83
2022/09/17 02:59:08;;;;;;;7.03;1.30;;;11.00;99.10;;;;;;4134887;28;20038;-83
2022/09/17 03:01:18;;;;;;;17.80;1.85;;;11.10;99.10;;;;;;4134503;28;20050;-83
2022/09/17 03:03:42;;;;;;;8.82;1.50;;;11.10;99.10;;;;;;4149741;28;20050;-83
2022/09/17 03:05:44;;;;;;;14.27;1.60;;;11.00;99.20;;;;;;4134560;28;20042;-82
2022/09/17 03:07:45;;;;;;;12.68;2.28;;;11.00;99.30;;;;;;4134803;28;20156;-83
2022/09/17 03:09:45;;;;;;;17.95;2.15;;;11.00;99.30;;;;;;4133662;28;20046;-82
2022/09/17 03:11:46;;;;;;;12.65;2.08;;;10.90;99.40;;;;;;4132892;28;20046;-82
2022/09/17 03:13:47;;;;;;;12.40;2.55;;;10.90;99.60;;;;;;4132389;28;20085;-82
2022/09/17 03:15:48;;;;;;;16.83;1.30;;;10.80;99.60;;;;;;4116169;28;20424;-82
2022/09/17 03:17:49;;;;;;;6.80;1.15;;;10.80;99.70;;;;;;4133670;28;20047;-82
2022/09/17 03:19:49;;;;;;;17.90;2.50;;;10.80;99.80;;;;;;4133636;28;20065;-82
2022/09/17 03:21:50;;;;;;;19.98;2.05;;;10.70;99.70;;;;;;4133461;28;20373;-82
2022/09/17 03:23:51;;;;;;;12.10;1.98;;;10.70;99.80;;;;;;4133641;28;20050;-82
2022/09/17 03:25:54;;;;;;;13.00;1.65;;;10.60;99.70;;;;;;4133307;28;20532;-82
2022/09/17 03:27:54;;;;;;;9.75;1.67;;;10.70;99.60;;;;;;4133469;28;20050;-82
2022/09/17 03:29:55;;;;;;;12.80;2.22;;;10.60;99.40;;;;;;4133583;28;20057;-82
2022/09/17 03:31:56;;;;;;;9.98;1.67;;;10.60;99.40;;;;;;4133204;28;20635;-82
2022/09/17 03:33:57;;;;;;;8.27;1.33;;;10.60;99.30;;;;;;4133582;28;20049;-82
2022/09/17 03:35:58;;;;;;;10.00;1.05;;;10.60;99.20;;;;;;4132436;28;20575;-82
2022/09/17 03:37:59;;;;;;;7.13;0.80;;;10.60;99.10;;;;;;4133510;28;20038;-82
2022/09/17 03:39:59;;;;;;;7.90;0.98;;;10.70;98.90;;;;;;4133466;28;20046;-82
2022/09/17 03:42:03;;;;;;;14.18;1.48;;;10.70;98.70;;;;;;4148399;28;20051;-82
2022/09/17 03:44:05;;;;;;;8.45;1.08;;;10.70;98.60;;;;;;4131887;28;20480;-82
2022/09/17 03:46:06;;;;;;;11.15;1.20;;;10.70;98.50;;;;;;4147335;28;20065;-82
2022/09/17 03:48:07;;;;;;;8.10;0.98;;;10.80;98.80;;;;;;4149446;28;20365;-82
2022/09/17 03:50:08;;;;;;;12.18;1.70;;;10.80;98.40;;;;;;4132240;28;20085;-82
2022/09/17 03:52:09;;;;;;;6.60;1.25;;;10.80;98.40;;;;;;4149277;28;20057;-82
2022/09/17 03:54:09;;;;;;;13.02;1.20;;;10.80;98.50;;;;;;4149333;28;20045;-82
2022/09/17 03:56:10;;;;;;;13.43;1.58;;;10.60;98.50;;;;;;4147722;28;20120;-82
2022/09/17 03:58:11;;;;;;;14.10;1.42;;;10.70;98.90;;;;;;4148959;28;20041;-82
2022/09/17 04:00:14;;;;;;;6.13;1.63;;;10.60;98.80;;;;;;4149444;28;20492;-82
2022/09/17 04:02:15;;;;;;;9.98;1.10;;;10.50;98.70;;;;;;4131460;28;20524;-82
2022/09/17 04:04:22;;;;;;;14.57;1.98;;;10.50;98.70;;;;;;4149204;28;20042;-82
2022/09/17 04:06:23;;;;;;;13.57;1.15;;;10.50;99.00;;;;;;4148999;28;20419;-82
2022/09/17 04:08:24;;;;;;;13.57;1.48;;;10.50;99.00;;;;;;4148953;28;20041;-82
2022/09/17 04:10:25;;;;;;;14.82;1.55;;;10.40;98.60;;;;;;4149169;28;20092;-82
2022/09/17 04:12:26;;;;;;;9.25;1.05;;;10.40;98.50;;;;;;4149216;28;20042;-82
2022/09/17 04:14:26;;;;;;;6.88;1.20;;;10.40;98.50;;;;;;4131149;28;20050;-82
2022/09/17 04:16:27;;;;;;;6.38;1.00;;;10.40;98.50;;;;;;4130140;28;20579;-82
2022/09/17 04:18:28;;;;;;;5.93;1.17;;;10.40;98.50;;;;;;4148344;28;20037;-82
2022/09/17 04:20:29;;;;;;;9.93;1.70;;;10.40;98.40;;;;;;4131398;28;20050;-82
2022/09/17 04:22:30;;;;;;;9.60;1.30;;;10.40;98.30;;;;;;4136502;28;20197;-82
2022/09/17 04:24:31;;;;;;;8.52;1.17;;;10.40;98.30;;;;;;4147821;28;20535;-82
2022/09/17 04:26:32;;;;;;;12.23;1.35;;;10.30;98.10;;;;;;4165136;28;20037;-82
2022/09/17 04:28:33;;;;;;;6.85;1.13;;;10.30;98.10;;;;;;4147660;28;20053;-82
2022/09/17 04:30:34;;;;;;;7.60;1.25;;;10.30;98.10;;;;;;4147400;28;20053;-82
2022/09/17 04:32:34;;;;;;;9.25;1.40;;;10.30;98.10;;;;;;4164950;28;20042;-81
2022/09/17 04:34:35;;;;;;;5.20;1.15;;;10.30;98.10;;;;;;4160202;28;20076;-82
2022/09/17 04:36:36;;;;;;;8.75;0.98;;;10.30;98.10;;;;;;4148483;28;20042;-83
2022/09/17 04:38:37;;;;;;;11.07;1.05;;;10.20;98.20;;;;;;4148228;28;20040;-83
2022/09/17 04:40:41;;;;;;;7.22;1.23;;;10.30;98.20;;;;;;4148557;28;20038;-83
2022/09/17 04:42:41;;;;;;;8.55;1.60;;;10.30;98.30;;;;;;4131090;28;20520;-83
2022/09/17 04:44:42;;;;;;;6.13;1.02;;;10.30;98.20;;;;;;4144931;28;20049;-84
2022/09/17 04:46:43;;;;;;;5.38;1.13;;;10.30;98.10;;;;;;4148753;28;20117;-84
2022/09/17 04:48:44;;;;;;;15.45;1.45;;;10.30;98.10;;;;;;4115257;28;20547;-84
2022/09/17 04:50:44;;;;;;;4.78;1.13;;;10.30;97.90;;;;;;4148727;28;20381;-84
2022/09/17 04:52:46;;;;;;;10.57;1.00;;;10.50;97.90;;;;;;4148327;28;20046;-84
2022/09/17 04:54:46;;;;;;;11.00;1.30;;;10.40;97.90;;;;;;4147439;28;20052;-84
2022/09/17 04:56:47;;;;;;;7.85;0.98;;;10.30;98.00;;;;;;4115591;28;20536;-84
2022/09/17 04:58:49;;;;;;;9.23;1.52;;;10.30;97.90;;;;;;4148771;28;20041;-84
2022/09/17 05:00:49;;;;;;;14.02;1.33;;;10.30;97.90;;;;;;4148670;28;20099;-84
2022/09/17 05:02:52;;;;;;;13.02;1.50;;;10.30;97.90;;;;;;4148785;28;20042;-83
2022/09/17 05:04:55;;;;;;;11.57;1.85;;;10.30;97.80;;;;;;4148669;28;20100;-84
2022/09/17 05:06:56;;;;;;;20.13;2.05;;;10.20;97.70;;;;;;4148192;28;20086;-84
2022/09/17 05:09:01;;;;;;;10.32;2.25;;;10.20;97.60;;;;;;4148507;28;20046;-84
2022/09/17 05:11:02;;;;;;;6.53;1.23;;;10.20;97.50;;;;;;4147445;28;20153;-84
2022/09/17 05:13:21;;;;;;;8.05;1.42;;;10.20;97.40;;;;;;4130497;28;20504;-84
2022/09/17 05:15:23;;;;;;;19.10;1.90;;;10.40;97.30;;;;;;4148393;28;20044;-84
2022/09/17 05:17:24;;;;;;;12.38;1.73;;;10.30;97.20;;;;;;4130898;28;20042;-84
2022/09/17 05:19:25;;;;;;;10.35;1.08;;;10.30;97.10;;;;;;4147585;28;20059;-83
2022/09/17 05:21:26;;;;;;;5.60;0.77;;;10.30;97.30;;;;;;4131101;28;20062;-84
2022/09/17 05:23:26;;;;;;;7.10;0.93;;;10.20;97.20;;;;;;4131030;28;20093;-84
2022/09/17 05:25:27;;;;;;;9.07;1.25;;;10.30;97.10;;;;;;4148599;28;20144;-84
2022/09/17 05:27:28;;;;;;;9.57;1.20;;;10.30;97.00;;;;;;4130340;28;20051;-84
2022/09/17 05:29:29;;;;;;;10.52;1.23;;;10.30;97.00;;;;;;4130891;28;20086;-84
2022/09/17 05:31:30;;;;;;;9.50;1.60;;;10.30;97.00;;;;;;4130788;28;20097;-84
2022/09/17 05:33:31;;;;;;;6.55;1.05;;;10.40;97.00;;;;;;4148635;28;20142;-84
2022/09/17 05:35:34;;;;;;;13.25;1.48;;;10.50;97.00;;;;;;4147800;28;20081;-83
2022/09/17 05:37:36;;;;;;;9.77;1.30;;;10.60;97.00;;;;;;4148196;28;20096;-84
2022/09/17 05:39:36;;;;;;;12.70;1.35;;;10.70;97.00;;;;;;4148367;28;20508;-84
2022/09/17 05:41:37;;;;;;;5.60;1.10;;;10.60;97.10;;;;;;4147841;28;20044;-84
2022/09/17 05:43:38;;;;;;;12.52;1.90;;;10.80;97.30;;;;;;4148377;28;20467;-84
2022/09/17 05:45:38;;;;;;;7.30;1.52;;;10.80;97.60;;;;;;4147576;28;20088;-84
2022/09/17 05:47:39;;;;;;;11.95;1.40;;;10.80;97.70;;;;;;4149862;28;20072;-84
2022/09/17 05:49:40;;;;;;;14.57;1.95;;;10.90;97.70;;;;;;4130775;28;20113;-84
2022/09/17 05:51:41;;;;;;;14.32;1.35;;;10.90;97.90;;;;;;4148213;28;20061;-84
2022/09/17 05:53:42;;;;;;;10.88;1.48;;;10.90;98.00;;;;;;4148190;28;20050;-84
2022/09/17 05:55:42;;;;;;;6.60;1.83;;;10.90;98.10;;;;;;4148647;28;20124;-83
2022/09/17 05:57:43;;;;;;;10.52;1.30;;;11.00;98.20;;;;;;4148382;28;20054;-83
2022/09/17 05:59:44;;;;;;;7.65;1.30;;;10.90;98.40;;;;;;4148722;28;20551;-83
2022/09/17 06:01:45;;;;;;;9.90;1.20;;;11.10;98.50;;;;;;4148317;28;20093;-83
2022/09/17 06:03:46;;;;;;;9.82;1.60;;;11.10;98.50;;;;;;4130953;28;20057;-83
2022/09/17 06:05:58;;;;;;;12.82;1.35;;;11.20;98.60;;;;;;4131095;28;20528;-83
2022/09/17 06:07:59;;;;;;;12.68;1.75;;;11.10;98.70;;;;;;4148953;28;20048;-82
2022/09/17 06:10:00;;;;;;;12.70;1.58;;;11.40;99.00;;;;;;4130972;28;20101;-83
2022/09/17 06:12:02;;;;;;;6.45;0.80;;;11.40;98.90;;;;;;4160689;28;20479;-83
2022/09/17 06:14:03;;;;;;;8.40;1.15;;;11.30;98.90;;;;;;4147205;28;20041;-84
2022/09/17 06:16:04;;;;;;;7.22;1.00;;;11.30;98.90;;;;;;4153864;28;20112;-84
2022/09/17 06:18:05;;;;;;;8.80;1.42;;;11.20;98.90;;;;;;4130917;28;20042;-84
2022/09/17 06:20:06;;;;;;;6.18;1.65;;;11.10;99.10;;;;;;4146972;28;20192;-84
2022/09/17 06:22:07;;;;;;;5.68;0.98;;;11.00;99.30;;;;;;4147812;28;20052;-84
2022/09/17 06:24:09;;;;;;;11.88;1.30;;;10.90;99.40;;;;;;4147768;28;20517;-83
2022/09/17 06:26:11;;;;;;;12.05;1.67;;;10.80;99.50;;;;;;4133691;28;20054;-83
2022/09/17 06:28:12;;;;;;;13.02;1.40;;;10.80;99.50;;;;;;4151235;28;20048;-84
2022/09/17 06:30:12;;;;;;;10.38;1.00;;;10.80;99.60;;;;;;4133571;28;20111;-84
2022/09/17 06:32:15;;;;;;;9.88;1.35;;;10.70;99.60;;;;;;4149979;28;20046;-83
2022/09/17 06:34:16;;;;;;;12.27;1.20;;;10.80;99.60;;;;;;4152034;28;20091;-84
2022/09/17 06:36:17;;;;;;;6.90;1.30;;;10.80;99.60;;;;;;4151811;28;20045;-83
2022/09/17 06:38:18;;;;;;;13.13;1.83;;;10.90;99.60;;;;;;4118697;28;20050;-84
2022/09/17 06:40:22;;;;;;;12.45;2.25;;;11.00;99.60;;;;;;4151822;28;20492;-84
2022/09/17 06:42:22;;;;;;;8.63;1.10;;;11.10;99.60;;;;;;4134812;28;20050;-84
2022/09/17 06:44:23;;;;;;;5.47;0.95;;;11.10;99.70;;;;;;4134392;28;20101;-83
2022/09/17 06:46:24;;;;;;;9.82;1.10;;;11.20;99.50;;;;;;4151687;28;20124;-83
2022/09/17 06:48:26;;;;;;;5.53;0.88;;;10.80;99.30;;;;;;4150802;28;20396;-84
2022/09/17 06:50:29;;;;;;;7.25;0.60;;;11.40;99.40;;;;;;4150439;28;20041;-84
2022/09/17 06:52:29;;;;;;;9.50;1.30;;;11.50;99.30;;;;;;4133812;28;20061;-84
2022/09/17 06:54:30;;;;;;;9.00;1.45;;;11.50;99.10;;;;;;4133559;28;20046;-86
2022/09/17 06:56:33;;;;;;;8.82;1.45;;;11.60;99.30;;;;;;4149635;28;20124;-85
2022/09/17 06:58:36;;;;;;;9.23;1.60;;;11.60;98.90;;;;;;4130966;28;20050;-86
2022/09/17 07:00:36;;;;;;;10.45;1.00;;;11.60;98.80;;;;;;4149969;28;20060;-86
2022/09/17 07:02:37;;;;;;;4.20;0.88;;;11.70;98.70;;;;;;4142587;28;20038;-86
2022/09/17 07:04:38;;;;;;;8.13;1.38;;;11.80;98.60;;;;;;4156146;28;20042;-86
2022/09/17 07:06:39;;;;;;;14.65;1.52;;;11.90;98.40;;;;;;4123597;28;20055;-84
2022/09/17 07:08:41;;;;;;;10.15;1.25;;;12.00;98.30;;;;;;4160404;28;20080;-85
2022/09/17 07:10:41;;;;;;;6.30;0.82;;;12.10;98.20;;;;;;4151543;28;20099;-85
2022/09/17 07:12:43;;;;;;;10.40;1.55;;;12.30;98.10;;;;;;4118961;28;20141;-86
2022/09/17 07:14:43;;;;;;;14.18;1.13;;;12.60;98.10;;;;;;4123380;28;20121;-86
2022/09/17 07:16:44;;;;;;;11.02;1.23;;;12.50;98.10;;;;;;4125129;28;20439;-86
2022/09/17 07:18:45;;;;;;;7.65;1.33;;;12.40;98.10;;;;;;4152503;28;20057;-86
2022/09/17 07:20:53;;;;;;;9.25;1.30;;;12.30;98.50;;;;;;4151650;28;20033;-86
2022/09/17 07:22:56;;;;;;;6.88;0.93;;;12.10;98.80;;;;;;4134648;28;20403;-85
2022/09/17 07:24:56;;;;;;;11.32;1.67;;;12.10;99.20;;;;;;4135082;28;20030;-85
2022/09/17 07:26:57;;;;;;;14.23;1.23;;;12.00;99.70;;;;;;4133211;28;20043;-86
2022/09/17 07:28:58;;;;;;;9.60;1.83;;;12.00;99.90;;;;;;4133380;28;20448;-86
2022/09/17 07:31:03;;;;;;;5.50;1.02;;;12.10;99.90;;;;;;4153963;28;20126;-85
2022/09/17 07:33:04;;;;;;;16.77;1.52;;;12.20;99.90;;;;;;4133090;28;20054;-85
2022/09/17 07:35:05;;;;;;;11.25;1.00;;;12.20;99.90;;;;;;4148892;28;20537;-85
2022/09/17 07:37:06;;;;;;;10.88;1.02;;;12.30;99.80;;;;;;4132771;28;20049;-84
2022/09/17 07:39:07;;;;;;;4.28;0.95;;;12.50;99.90;;;;;;4131178;28;20054;-84
2022/09/17 07:41:13;;;;;;;8.20;1.13;;;12.70;99.90;;;;;;4148157;28;20054;-85
2022/09/17 07:43:14;;;;;;;4.63;0.63;;;12.90;99.40;;;;;;4131864;28;20197;-83
2022/09/17 07:45:15;;;;;;;9.65;0.95;;;13.20;99.30;;;;;;4150762;28;20058;-81
2022/09/17 07:47:16;;;;;;;6.78;0.80;;;13.50;99.00;;;;;;4147718;28;20050;-84
2022/09/17 07:49:17;;;;;;;3.15;0.80;;;13.80;98.80;;;;;;4165160;28;20053;-85
2022/09/17 07:51:23;;;;;;;7.15;0.70;;;14.00;98.50;;;;;;4164957;28;20046;-83
2022/09/17 07:53:24;;;;;;;8.07;1.05;;;13.90;98.20;;;;;;4129883;28;20064;-84
2022/09/17 07:55:25;;;;;;;7.05;1.60;;;13.70;98.20;;;;;;4148654;28;20095;-87
2022/09/17 07:57:26;;;;;;;4.93;0.70;;;13.50;98.40;;;;;;4116328;28;20047;-83
2022/09/17 07:59:27;;;;;;;7.97;0.75;;;13.30;98.60;;;;;;4151334;28;20042;-83
2022/09/17 08:01:28;;;;;;;3.88;0.68;;;13.10;98.60;;;;;;4131679;28;20059;-82
2022/09/17 08:03:29;;;;;;;7.97;1.25;;;13.00;98.60;;;;;;4131973;28;20058;-82
2022/09/17 08:05:31;;;;;;;6.00;1.30;;;13.20;98.60;;;;;;4119670;28;20052;-82
2022/09/17 08:07:32;;;;;;;4.65;0.60;;;14.20;98.00;;;;;;4157543;28;20049;-81
2022/09/17 08:09:32;;;;;;;5.65;0.80;;;15.10;96.30;;;;;;4141472;28;20334;-81
2022/09/17 08:11:33;;;;;;;9.05;0.95;;;16.00;95.00;;;;;;4158840;28;20048;-81
2022/09/17 08:13:34;;;;;;;6.80;0.90;;;16.70;93.90;;;;;;4158418;28;20034;-81
2022/09/17 08:15:35;;;;;;;7.20;0.98;;;17.30;92.90;;;;;;4132706;28;20054;-81
2022/09/17 08:17:36;;;;;;;4.30;1.45;;;17.80;91.90;;;;;;4164925;28;20049;-83
2022/09/17 08:19:37;;;;;;;10.65;1.65;;;18.10;91.50;;;;;;4164367;28;20108;-83
2022/09/17 08:21:38;;;;;;;9.85;1.00;;;17.80;91.50;;;;;;4147175;28;20570;-83
2022/09/17 08:23:41;;;;;;;5.25;0.77;;;17.20;92.00;;;;;;4163766;28;20044;-83
2022/09/17 08:25:42;;;;;;;6.93;1.33;;;17.10;92.50;;;;;;4146856;28;20407;-83
2022/09/17 08:27:44;;;;;;;8.70;1.42;;;17.50;92.60;;;;;;4146831;28;20058;-83
2022/09/17 08:29:44;;;;;;;9.05;1.40;;;18.10;92.20;;;;;;4146816;28;20140;-83
2022/09/17 08:31:45;;;;;;;7.25;0.80;;;18.80;91.70;;;;;;4164404;28;20138;-84
2022/09/17 08:33:46;;;;;;;9.88;0.85;;;19.50;91.40;;;;;;4160402;28;20045;-84
2022/09/17 08:35:51;;;;;;;6.43;0.82;;;19.30;90.80;;;;;;4148184;28;20117;-83
2022/09/17 08:37:54;;;;;;;6.38;1.05;;;18.90;90.40;;;;;;4130541;28;20042;-83
2022/09/17 08:39:56;;;;;;;5.95;1.60;;;19.20;90.80;;;;;;4147756;28;20045;-83
2022/09/17 08:42:04;;;;;;;8.45;0.82;;;19.70;90.40;;;;;;4147848;28;20081;-84
2022/09/17 08:44:25;;;;;;;8.25;0.85;;;20.20;89.10;;;;;;4148137;28;20103;-83
2022/09/17 08:46:27;;;;;;;17.20;3.17;;;20.30;87.90;;;;;;4147511;28;20062;-83
2022/09/17 08:48:38;;;;;;;16.95;1.17;;;19.50;88.40;;;;;;4147633;28;20050;-84
2022/09/17 08:50:41;;;;;;;9.13;0.95;;;18.20;87.80;;;;;;4148522;28;20088;-83
2022/09/17 08:52:58;;;;;;;10.38;0.88;;;17.90;90.30;;;;;;4147895;28;20049;-83
2022/09/17 08:55:28;;;;;;;6.85;1.10;;;17.20;90.80;;;;;;4148341;28;20042;-84
2022/09/17 08:57:34;;;;;;;5.55;0.80;;;16.40;91.80;;;;;;4148335;28;20042;-83
2022/09/17 08:59:58;;;;;;;6.95;0.70;;;15.90;92.50;;;;;;4148188;28;20050;-83
2022/09/17 09:02:15;;;;;;;4.97;0.80;;;15.40;92.90;;;;;;4130732;28;20050;-84
2022/09/17 09:04:41;;;;;;;2.65;0.68;;;15.00;92.80;;;;;;4131005;28;20054;-84
2022/09/17 09:06:48;;;;;;;5.78;0.60;;;14.60;92.70;;;;;;4148162;28;20476;-84
2022/09/17 09:09:12;;;;;;;4.30;0.40;;;14.40;93.30;;;;;;4147445;28;20045;-84
2022/09/17 09:11:16;;;;;;;2.92;0.43;;;14.30;92.60;;;;;;4124840;28;20078;-84
2022/09/17 09:13:22;;;;;;;3.97;0.93;;;14.30;93.10;;;;;;4114056;28;20055;-84
2022/09/17 09:15:48;;;;;;;4.38;0.45;;;14.30;92.80;;;;;;4114429;28;20055;-83
2022/09/17 09:17:50;;;;;;;4.22;0.57;;;14.10;93.00;;;;;;4131376;28;20065;-84
2022/09/17 09:19:52;;;;;;;7.95;0.80;;;14.00;93.30;;;;;;4129581;28;20078;-84
2022/09/17 09:22:13;;;;;;;6.65;0.93;;;13.90;93.40;;;;;;4129864;28;20054;-83
2022/09/17 09:24:25;;;;;;;7.57;1.83;;;13.90;93.70;;;;;;4129732;28;20042;-83
2022/09/17 09:26:59;;;;;;;9.77;1.00;;;14.00;93.80;;;;;;4131441;28;20034;-84
2022/09/17 09:29:20;;;;;;;7.93;1.95;;;14.30;93.80;;;;;;4147695;28;20050;-83
2022/09/17 09:31:37;;;;;;;5.63;0.65;;;14.20;93.80;;;;;;4147373;28;20373;-84
2022/09/17 09:33:41;;;;;;;5.72;0.90;;;13.90;94.10;;;;;;4148052;28;20442;-84
2022/09/17 09:35:43;;;;;;;5.63;1.02;;;13.60;94.10;;;;;;4147712;28;20053;-84
2022/09/17 09:38:01;;;;;;;8.90;1.25;;;13.40;94.40;;;;;;4130441;28;20093;-84
2022/09/17 09:40:21;;;;;;;1.33;0.40;;;13.20;94.80;;;;;;4129051;28;20061;-83
2022/09/17 09:42:26;;;;;;;6.55;0.60;;;13.00;94.40;;;;;;4134751;28;20516;-83
2022/09/17 09:44:26;;;;;;;8.43;0.90;;;12.90;94.70;;;;;;4149811;28;20042;-83
2022/09/17 09:46:33;;;;;;;2.63;0.50;;;12.80;94.90;;;;;;4158494;28;20118;-82
2022/09/17 09:49:04;;;;;;;7.28;1.42;;;12.70;95.30;;;;;;4154385;28;20101;-81
2022/09/17 09:51:17;;;;;;;3.58;0.70;;;12.70;95.60;;;;;;4165939;28;20037;-82
2022/09/17 09:53:41;;;;;;;5.50;0.50;;;12.70;95.80;;;;;;4152565;28;20546;-81
2022/09/17 09:56:07;;;;;;;4.32;1.00;;;12.70;96.20;;;;;;4158121;28;20070;-84
2022/09/17 09:58:19;;;;;;;5.65;0.90;;;13.00;96.60;;;;;;4160185;28;20042;-82
2022/09/17 10:00:38;;;;;;;6.05;1.00;;;13.40;96.60;;;;;;4141072;28;20607;-82
2022/09/17 10:02:40;;;;;;;13.02;2.83;;;13.70;96.60;;;;;;4155208;28;20399;-84
2022/09/17 10:04:41;;;;;;;6.82;0.77;;;13.10;96.00;;;;;;4151953;28;20079;-84
2022/09/17 10:06:42;;;;;;;15.52;2.08;;;13.50;96.20;;;;;;4151341;28;20519;-84
2022/09/17 10:09:04;;;;;;;10.13;1.35;;;13.60;96.30;;;;;;4151141;28;20180;-84
2022/09/17 10:11:27;;;;;;;9.65;1.20;;;13.80;97.10;;;;;;4143678;28;20053;-84
2022/09/17 10:13:35;;;;;;;7.75;1.10;;;14.00;96.90;;;;;;4150848;28;20108;-84
2022/09/17 10:15:36;;;;;;;9.30;0.90;;;14.00;96.80;;;;;;4151224;28;20416;-84
2022/09/17 10:17:37;;;;;;;11.27;1.85;;;14.00;96.70;;;;;;4133609;28;20448;-84
2022/09/17 10:19:38;;;;;;;9.77;2.13;;;13.90;96.70;;;;;;4150522;28;20050;-84
2022/09/17 10:21:41;;;;;;;7.90;1.25;;;13.80;96.70;;;;;;4150023;28;20069;-84
2022/09/17 10:23:43;;;;;;;11.07;2.15;;;13.70;97.20;;;;;;4160047;28;20056;-84
2022/09/17 10:25:44;;;;;;;12.23;1.92;;;13.70;97.20;;;;;;4167074;28;20091;-84
2022/09/17 10:27:46;;;;;;;4.30;1.05;;;13.70;97.20;;;;;;4166857;28;20041;-84
2022/09/17 10:29:50;;;;;;;8.55;1.02;;;14.10;97.30;;;;;;4167096;28;20095;-84
2022/09/17 10:31:54;;;;;;;8.48;1.88;;;14.60;97.10;;;;;;4167160;28;20509;-84
2022/09/17 10:34:01;;;;;;;14.75;1.83;;;14.90;96.80;;;;;;4166821;28;20037;-84
2022/09/17 10:36:15;;;;;;;5.72;1.35;;;15.10;96.40;;;;;;4167123;28;20045;-85
2022/09/17 10:38:30;;;;;;;9.95;1.10;;;15.60;96.40;;;;;;4166972;28;20376;-84
2022/09/17 10:40:31;;;;;;;6.55;1.42;;;16.00;95.80;;;;;;4165198;28;20058;-84
2022/09/17 10:42:32;;;;;;;7.15;1.77;;;16.30;95.40;;;;;;4150436;28;20049;-85
2022/09/17 10:44:34;;;;;;;7.22;1.20;;;16.60;95.50;;;;;;4150610;28;20046;-85
2022/09/17 10:46:35;;;;;;;13.88;2.10;;;16.70;95.30;;;;;;4150754;28;20142;-85
2022/09/17 10:48:55;;;;;;;6.82;0.85;;;16.90;95.20;;;;;;4150405;28;20050;-85
2022/09/17 10:50:57;;;;;;;8.30;1.35;;;17.20;94.80;;;;;;4132562;28;20443;-85